sensor_id;sensor_type;location;lat;lon;timestamp;pressure;altitude;pressure_sealevel;temperature;humidity
53262;BME280;39658;51.090;-1.786;2023-03-05T00:01:49;101927.22;;;1.56;100.00
53262;BME280;39658;51.090;-1.786;2023-03-05T00:04:15;101922.88;;;1.54;100.00
53262;BME280;39658;51.090;-1.786;2023-03-05T00:06:42;101922.00;;;1.58;100.00
53262;BME280;39658;51.090;-1.786;2023-03-05T00:09:10;101915.06;;;1.55;100.00
53262;BME280;39658;51.090;-1.786;2023-03-05T00:11:37;101915.94;;;1.59;100.00
53262;BME280;39658;51.090;-1.786;2023-03-05T00:14:04;101917.63;;;1.60;100.00
53262;BME280;39658;51.090;-1.786;2023-03-05T00:16:32;101927.19;;;1.59;100.00
53262;BME280;39658;51.090;-1.786;2023-03-05T00:18:59;101926.31;;;1.60;100.00
53262;BME280;39658;51.090;-1.786;2023-03-05T00:21:28;101916.81;;;1.56;100.00
53262;BME280;39658;51.090;-1.786;2023-03-05T00:23:56;101916.84;;;1.53;100.00
53262;BME280;39658;51.090;-1.786;2023-03-05T00:26:27;101916.84;;;1.53;100.00
53262;BME280;39658;51.090;-1.786;2023-03-05T00:28:56;101909.88;;;1.55;100.00
53262;BME280;39658;51.090;-1.786;2023-03-05T00:31:26;101905.56;;;1.54;100.00
53262;BME280;39658;51.090;-1.786;2023-03-05T00:33:55;101905.63;;;1.50;100.00
53262;BME280;39658;51.090;-1.786;2023-03-05T00:36:24;101906.44;;;1.53;100.00
53262;BME280;39658;51.090;-1.786;2023-03-05T00:38:51;101910.81;;;1.51;100.00
53262;BME280;39658;51.090;-1.786;2023-03-05T00:41:18;101906.50;;;1.47;100.00
53262;BME280;39658;51.090;-1.786;2023-03-05T00:43:47;101907.38;;;1.49;100.00
53262;BME280;39658;51.090;-1.786;2023-03-05T00:46:14;101903.88;;;1.49;100.00
53262;BME280;39658;51.090;-1.786;2023-03-05T00:48:41;101905.63;;;1.50;100.00
53262;BME280;39658;51.090;-1.786;2023-03-05T00:51:08;101900.44;;;1.47;100.00
53262;BME280;39658;51.090;-1.786;2023-03-05T00:53:41;101903.06;;;1.45;100.00
53262;BME280;39658;51.090;-1.786;2023-03-05T00:56:08;101904.69;;;1.55;100.00
53262;BME280;39658;51.090;-1.786;2023-03-05T00:58:34;101901.19;;;1.58;100.00
53262;BME280;39658;51.090;-1.786;2023-03-05T01:01:03;101900.38;;;1.54;100.00
53262;BME280;39658;51.090;-1.786;2023-03-05T01:03:31;101909.06;;;1.52;100.00
53262;BME280;39658;51.090;-1.786;2023-03-05T01:05:58;101896.06;;;1.50;100.00
53262;BME280;39658;51.090;-1.786;2023-03-05T01:08:26;101900.44;;;1.47;100.00
53262;BME280;39658;51.090;-1.786;2023-03-05T01:10:53;101891.78;;;1.48;100.00
53262;BME280;39658;51.090;-1.786;2023-03-05T01:13:20;101885.72;;;1.46;100.00
53262;BME280;39658;51.090;-1.786;2023-03-05T01:15:47;101880.50;;;1.47;100.00
53262;BME280;39658;51.090;-1.786;2023-03-05T01:18:17;101876.25;;;1.43;100.00
53262;BME280;39658;51.090;-1.786;2023-03-05T01:20:44;101881.44;;;1.41;100.00
53262;BME280;39658;51.090;-1.786;2023-03-05T01:23:11;101869.31;;;1.42;100.00
53262;BME280;39658;51.090;-1.786;2023-03-05T01:25:38;101875.34;;;1.44;100.00
53262;BME280;39658;51.090;-1.786;2023-03-05T01:28:04;101868.44;;;1.41;100.00
53262;BME280;39658;51.090;-1.786;2023-03-05T01:30:32;101862.38;;;1.39;100.00
53262;BME280;39658;51.090;-1.786;2023-03-05T01:32:59;101859.81;;;1.38;100.00
53262;BME280;39658;51.090;-1.786;2023-03-05T01:35:27;101855.53;;;1.35;100.00
53262;BME280;39658;51.090;-1.786;2023-03-05T01:37:55;101847.78;;;1.31;100.00
53262;BME280;39658;51.090;-1.786;2023-03-05T01:40:24;101849.47;;;1.32;100.00
53262;BME280;39658;51.090;-1.786;2023-03-05T01:42:57;101840.81;;;1.31;100.00
53262;BME280;39658;51.090;-1.786;2023-03-05T01:45:24;101831.31;;;1.27;100.00
53262;BME280;39658;51.090;-1.786;2023-03-05T01:47:51;101833.88;;;1.30;100.00
53262;BME280;39658;51.090;-1.786;2023-03-05T01:50:21;101826.06;;;1.33;100.00
53262;BME280;39658;51.090;-1.786;2023-03-05T01:52:55;101824.34;;;1.34;100.00
53262;BME280;39658;51.090;-1.786;2023-03-05T01:55:25;101827.84;;;1.30;100.00
53262;BME280;39658;51.090;-1.786;2023-03-05T01:57:56;101820.94;;;1.25;100.00
53262;BME280;39658;51.090;-1.786;2023-03-05T02:00:26;101826.16;;;1.22;100.00
53262;BME280;39658;51.090;-1.786;2023-03-05T02:02:54;101827.09;;;1.18;100.00
53262;BME280;39658;51.090;-1.786;2023-03-05T02:05:26;101821.94;;;1.14;100.00
53262;BME280;39658;51.090;-1.786;2023-03-05T02:07:56;101807.22;;;1.13;100.00
53262;BME280;39658;51.090;-1.786;2023-03-05T02:10:24;101805.50;;;1.10;100.00
53262;BME280;39658;51.090;-1.786;2023-03-05T02:12:53;101809.84;;;1.10;100.00
53262;BME280;39658;51.090;-1.786;2023-03-05T02:15:21;101802.91;;;1.08;100.00
53262;BME280;39658;51.090;-1.786;2023-03-05T02:17:48;101807.25;;;1.08;100.00
53262;BME280;39658;51.090;-1.786;2023-03-05T02:20:17;101792.53;;;1.07;100.00
53262;BME280;39658;51.090;-1.786;2023-03-05T02:22:46;101798.59;;;1.11;100.00
53262;BME280;39658;51.090;-1.786;2023-03-05T02:25:17;101788.19;;;1.12;100.00
53262;BME280;39658;51.090;-1.786;2023-03-05T02:27:50;101787.31;;;1.10;100.00
53262;BME280;39658;51.090;-1.786;2023-03-05T02:30:18;101781.28;;;1.08;100.00
53262;BME280;39658;51.090;-1.786;2023-03-05T02:32:45;101779.56;;;1.05;100.00
53262;BME280;39658;51.090;-1.786;2023-03-05T02:35:11;101780.47;;;1.03;100.00
53262;BME280;39658;51.090;-1.786;2023-03-05T02:37:38;101769.22;;;1.02;100.00
53262;BME280;39658;51.090;-1.786;2023-03-05T02:40:08;101768.34;;;1.02;100.00
53262;BME280;39658;51.090;-1.786;2023-03-05T02:42:35;101753.63;;;1.02;100.00
53262;BME280;39658;51.090;-1.786;2023-03-05T02:45:02;101767.47;;;1.04;100.00
53262;BME280;39658;51.090;-1.786;2023-03-05T02:47:29;101757.97;;;1.02;100.00
53262;BME280;39658;51.090;-1.786;2023-03-05T02:49:56;101754.50;;;1.04;100.00
53262;BME280;39658;51.090;-1.786;2023-03-05T02:52:23;101757.09;;;1.03;100.00
53262;BME280;39658;51.090;-1.786;2023-03-05T02:54:50;101749.28;;;1.06;100.00
53262;BME280;39658;51.090;-1.786;2023-03-05T02:57:18;101745.78;;;1.07;100.00
53262;BME280;39658;51.090;-1.786;2023-03-05T02:59:46;101744.97;;;1.05;100.00
53262;BME280;39658;51.090;-1.786;2023-03-05T03:02:13;101737.19;;;1.03;100.00
53262;BME280;39658;51.090;-1.786;2023-03-05T03:04:41;101734.59;;;1.02;100.00
53262;BME280;39658;51.090;-1.786;2023-03-05T03:07:08;101730.25;;;1.04;100.00
53262;BME280;39658;51.090;-1.786;2023-03-05T03:09:34;101724.22;;;1.00;100.00
53262;BME280;39658;51.090;-1.786;2023-03-05T03:12:02;101729.41;;;1.00;100.00
53262;BME280;39658;51.090;-1.786;2023-03-05T03:14:31;101721.66;;;0.97;100.00
53262;BME280;39658;51.090;-1.786;2023-03-05T03:17:02;101719.94;;;0.95;100.00
53262;BME280;39658;51.090;-1.786;2023-03-05T03:19:29;101712.16;;;0.95;100.00
53262;BME280;39658;51.090;-1.786;2023-03-05T03:21:55;101714.75;;;0.93;100.00
53262;BME280;39658;51.090;-1.786;2023-03-05T03:24:22;101715.66;;;0.94;100.00
53262;BME280;39658;51.090;-1.786;2023-03-05T03:26:49;101715.66;;;0.94;100.00
53262;BME280;39658;51.090;-1.786;2023-03-05T03:29:15;101706.97;;;0.93;100.00
53262;BME280;39658;51.090;-1.786;2023-03-05T03:31:44;101700.09;;;0.92;100.00
53262;BME280;39658;51.090;-1.786;2023-03-05T03:34:11;101693.13;;;0.93;100.00
53262;BME280;39658;51.090;-1.786;2023-03-05T03:36:39;101698.31;;;0.94;100.00
53262;BME280;39658;51.090;-1.786;2023-03-05T03:39:06;101692.28;;;0.94;100.00
53262;BME280;39658;51.090;-1.786;2023-03-05T03:41:34;101693.16;;;0.91;100.00
53262;BME280;39658;51.090;-1.786;2023-03-05T03:44:01;101693.16;;;0.89;100.00
53262;BME280;39658;51.090;-1.786;2023-03-05T03:46:29;101696.66;;;0.87;100.00
53262;BME280;39658;51.090;-1.786;2023-03-05T03:48:57;101695.81;;;0.86;100.00
53262;BME280;39658;51.090;-1.786;2023-03-05T03:51:24;101683.72;;;0.82;100.00
53262;BME280;39658;51.090;-1.786;2023-03-05T03:53:51;101684.63;;;0.80;100.00
53262;BME280;39658;51.090;-1.786;2023-03-05T03:56:18;101677.66;;;0.82;100.00
53262;BME280;39658;51.090;-1.786;2023-03-05T03:58:44;101685.47;;;0.82;100.00
53262;BME280;39658;51.090;-1.786;2023-03-05T04:01:11;101685.47;;;0.82;100.00
53262;BME280;39658;51.090;-1.786;2023-03-05T04:03:38;101680.28;;;0.80;100.00
53262;BME280;39658;51.090;-1.786;2023-03-05T04:06:06;101666.50;;;0.75;100.00
53262;BME280;39658;51.090;-1.786;2023-03-05T04:08:33;101671.69;;;0.75;100.00
53262;BME280;39658;51.090;-1.786;2023-03-05T04:11:00;101666.50;;;0.74;100.00
53262;BME280;39658;51.090;-1.786;2023-03-05T04:13:28;101663.09;;;0.71;100.00
53262;BME280;39658;51.090;-1.786;2023-03-05T04:15:54;101660.50;;;0.71;100.00
53262;BME280;39658;51.090;-1.786;2023-03-05T04:18:22;101664.78;;;0.73;100.00
53262;BME280;39658;51.090;-1.786;2023-03-05T04:20:49;101653.56;;;0.72;100.00
53262;BME280;39658;51.090;-1.786;2023-03-05T04:23:17;101651.78;;;0.74;100.00
53262;BME280;39658;51.090;-1.786;2023-03-05T04:25:44;101648.31;;;0.77;100.00
53262;BME280;39658;51.090;-1.786;2023-03-05T04:28:11;101644.84;;;0.76;100.00
53262;BME280;39658;51.090;-1.786;2023-03-05T04:30:37;101644.00;;;0.74;100.00
53262;BME280;39658;51.090;-1.786;2023-03-05T04:33:04;101645.75;;;0.74;100.00
53262;BME280;39658;51.090;-1.786;2023-03-05T04:35:31;101640.59;;;0.70;100.00
53262;BME280;39658;51.090;-1.786;2023-03-05T04:37:58;101643.19;;;0.69;100.00
53262;BME280;39658;51.090;-1.786;2023-03-05T04:40:26;101641.41;;;0.73;100.00
53262;BME280;39658;51.090;-1.786;2023-03-05T04:42:53;101637.13;;;0.70;100.00
53262;BME280;39658;51.090;-1.786;2023-03-05T04:45:20;101637.19;;;0.67;100.00
53262;BME280;39658;51.090;-1.786;2023-03-05T04:47:46;101633.72;;;0.65;100.00
53262;BME280;39658;51.090;-1.786;2023-03-05T04:50:13;101635.44;;;0.67;100.00
53262;BME280;39658;51.090;-1.786;2023-03-05T04:52:42;101626.81;;;0.64;100.00
53262;BME280;39658;51.090;-1.786;2023-03-05T04:55:10;101631.13;;;0.63;100.00
53262;BME280;39658;51.090;-1.786;2023-03-05T04:57:38;101632.03;;;0.62;100.00
53262;BME280;39658;51.090;-1.786;2023-03-05T05:00:07;101631.16;;;0.60;100.00
53262;BME280;39658;51.090;-1.786;2023-03-05T05:02:38;101632.06;;;0.59;100.00
53262;BME280;39658;51.090;-1.786;2023-03-05T05:05:05;101623.38;;;0.59;100.00
53262;BME280;39658;51.090;-1.786;2023-03-05T05:07:33;101623.34;;;0.63;100.00
53262;BME280;39658;51.090;-1.786;2023-03-05T05:09:59;101621.59;;;0.68;100.00
53262;BME280;39658;51.090;-1.786;2023-03-05T05:12:27;101615.47;;;0.71;100.00
53262;BME280;39658;51.090;-1.786;2023-03-05T05:14:56;101612.88;;;0.71;100.00
53262;BME280;39658;51.090;-1.786;2023-03-05T05:17:23;101608.59;;;0.70;100.00
53262;BME280;39658;51.090;-1.786;2023-03-05T05:19:50;101598.22;;;0.68;100.00
53262;BME280;39658;51.090;-1.786;2023-03-05T05:22:17;101598.22;;;0.68;100.00
53262;BME280;39658;51.090;-1.786;2023-03-05T05:24:43;101602.47;;;0.73;100.00
53262;BME280;39658;51.090;-1.786;2023-03-05T05:27:10;101596.44;;;0.72;100.00
53262;BME280;39658;51.090;-1.786;2023-03-05T05:29:37;101590.44;;;0.68;100.00
53262;BME280;39658;51.090;-1.786;2023-03-05T05:32:06;101588.69;;;0.69;100.00
53262;BME280;39658;51.090;-1.786;2023-03-05T05:34:33;101590.41;;;0.70;100.00
53262;BME280;39658;51.090;-1.786;2023-03-05T05:37:00;101588.66;;;0.72;100.00
53262;BME280;39658;51.090;-1.786;2023-03-05T05:39:26;101590.38;;;0.75;100.00
53262;BME280;39658;51.090;-1.786;2023-03-05T05:41:53;101581.69;;;0.74;100.00
53262;BME280;39658;51.090;-1.786;2023-03-05T05:44:20;101581.75;;;0.69;100.00
53262;BME280;39658;51.090;-1.786;2023-03-05T05:46:47;101576.56;;;0.68;100.00
53262;BME280;39658;51.090;-1.786;2023-03-05T05:49:15;101581.78;;;0.66;100.00
53262;BME280;39658;51.090;-1.786;2023-03-05T05:51:42;101566.34;;;0.56;100.00
53262;BME280;39658;51.090;-1.786;2023-03-05T05:54:11;101575.81;;;0.60;100.00
53262;BME280;39658;51.090;-1.786;2023-03-05T05:56:38;101573.22;;;0.58;100.00
53262;BME280;39658;51.090;-1.786;2023-03-05T05:59:05;101571.50;;;0.57;100.00
53262;BME280;39658;51.090;-1.786;2023-03-05T06:01:32;101572.41;;;0.56;100.00
53262;BME280;39658;51.090;-1.786;2023-03-05T06:04:00;101574.97;;;0.58;100.00
53262;BME280;39658;51.090;-1.786;2023-03-05T06:06:28;101581.88;;;0.57;100.00
53262;BME280;39658;51.090;-1.786;2023-03-05T06:08:56;101565.53;;;0.50;100.00
53262;BME280;39658;51.090;-1.786;2023-03-05T06:11:22;101568.94;;;0.54;100.00
53262;BME280;39658;51.090;-1.786;2023-03-05T06:13:50;101572.41;;;0.56;100.00
53262;BME280;39658;51.090;-1.786;2023-03-05T06:16:19;101567.19;;;0.59;100.00
53262;BME280;39658;51.090;-1.786;2023-03-05T06:18:46;101562.81;;;0.63;100.00
53262;BME280;39658;51.090;-1.786;2023-03-05T06:21:15;101561.97;;;0.61;100.00
53262;BME280;39658;51.090;-1.786;2023-03-05T06:23:44;101560.22;;;0.61;100.00
53262;BME280;39658;51.090;-1.786;2023-03-05T06:26:14;101559.38;;;0.61;100.00
53262;BME280;39658;51.090;-1.786;2023-03-05T06:28:41;101549.06;;;0.55;100.00
53262;BME280;39658;51.090;-1.786;2023-03-05T06:31:09;101559.34;;;0.62;100.00
53262;BME280;39658;51.090;-1.786;2023-03-05T06:33:36;101560.25;;;0.58;100.00
53262;BME280;39658;51.090;-1.786;2023-03-05T06:36:04;101552.47;;;0.58;100.00
53262;BME280;39658;51.090;-1.786;2023-03-05T06:38:33;101560.28;;;0.57;100.00
53262;BME280;39658;51.090;-1.786;2023-03-05T06:41:02;101552.50;;;0.55;100.00
53262;BME280;39658;51.090;-1.786;2023-03-05T06:43:30;101555.94;;;0.56;100.00
53262;BME280;39658;51.090;-1.786;2023-03-05T06:46:01;101546.44;;;0.56;100.00
53262;BME280;39658;51.090;-1.786;2023-03-05T06:48:28;101541.25;;;0.58;100.00
53262;BME280;39658;51.090;-1.786;2023-03-05T06:50:55;101545.53;;;0.60;100.00
53262;BME280;39658;51.090;-1.786;2023-03-05T06:53:22;101544.63;;;0.63;100.00
53262;BME280;39658;51.090;-1.786;2023-03-05T06:55:49;101550.63;;;0.66;100.00
53262;BME280;39658;51.090;-1.786;2023-03-05T06:58:18;101545.44;;;0.66;100.00
53262;BME280;39658;51.090;-1.786;2023-03-05T07:00:44;101552.38;;;0.66;100.00
53262;BME280;39658;51.090;-1.786;2023-03-05T07:03:12;101547.22;;;0.64;100.00
53262;BME280;39658;51.090;-1.786;2023-03-05T07:05:39;101539.47;;;0.61;100.00
53262;BME280;39658;51.090;-1.786;2023-03-05T07:08:06;101547.22;;;0.63;100.00
53262;BME280;39658;51.090;-1.786;2023-03-05T07:10:36;101546.38;;;0.62;100.00
53262;BME280;39658;51.090;-1.786;2023-03-05T07:13:04;101542.91;;;0.62;100.00
53262;BME280;39658;51.090;-1.786;2023-03-05T07:15:32;101535.09;;;0.65;100.00
53262;BME280;39658;51.090;-1.786;2023-03-05T07:17:59;101519.50;;;0.65;100.00
53262;BME280;39658;51.090;-1.786;2023-03-05T07:20:26;101527.28;;;0.66;100.00
53262;BME280;39658;51.090;-1.786;2023-03-05T07:22:54;101521.22;;;0.69;100.00
53262;BME280;39658;51.090;-1.786;2023-03-05T07:25:20;101516.00;;;0.70;100.00
53262;BME280;39658;51.090;-1.786;2023-03-05T07:27:49;101515.13;;;0.73;100.00
53262;BME280;39658;51.090;-1.786;2023-03-05T07:30:16;101514.97;;;0.81;100.00
53262;BME280;39658;51.090;-1.786;2023-03-05T07:32:44;101518.41;;;0.86;100.00
53262;BME280;39658;51.090;-1.786;2023-03-05T07:35:11;101519.16;;;0.93;100.00
53262;BME280;39658;51.090;-1.786;2023-03-05T07:37:38;101519.94;;;0.99;100.00
53262;BME280;39658;51.090;-1.786;2023-03-05T07:40:05;101521.69;;;0.99;100.00
53262;BME280;39658;51.090;-1.786;2023-03-05T07:42:33;101526.84;;;1.00;100.00
53262;BME280;39658;51.090;-1.786;2023-03-05T07:45:00;101524.25;;;1.02;100.00
53262;BME280;39658;51.090;-1.786;2023-03-05T07:47:27;101522.50;;;1.02;100.00
53262;BME280;39658;51.090;-1.786;2023-03-05T07:49:56;101519.91;;;1.02;100.00
53262;BME280;39658;51.090;-1.786;2023-03-05T07:52:23;101519.06;;;1.02;100.00
53262;BME280;39658;51.090;-1.786;2023-03-05T07:54:49;101519.91;;;1.01;100.00
53262;BME280;39658;51.090;-1.786;2023-03-05T07:57:16;101520.81;;;1.00;100.00
53262;BME280;39658;51.090;-1.786;2023-03-05T07:59:43;101527.72;;;0.99;100.00
53262;BME280;39658;51.090;-1.786;2023-03-05T08:02:10;101530.31;;;0.99;100.00
53262;BME280;39658;51.090;-1.786;2023-03-05T08:04:37;101529.47;;;1.00;100.00
53262;BME280;39658;51.090;-1.786;2023-03-05T08:07:06;101528.53;;;1.06;100.00
53262;BME280;39658;51.090;-1.786;2023-03-05T08:09:32;101525.94;;;1.06;100.00
53262;BME280;39658;51.090;-1.786;2023-03-05T08:11:59;101521.59;;;1.06;100.00
53262;BME280;39658;51.090;-1.786;2023-03-05T08:14:26;101530.13;;;1.15;100.00
53262;BME280;39658;51.090;-1.786;2023-03-05T08:16:53;101530.97;;;1.17;100.00
53262;BME280;39658;51.090;-1.786;2023-03-05T08:19:20;101524.91;;;1.16;100.00
53262;BME280;39658;51.090;-1.786;2023-03-05T08:21:47;101517.13;;;1.16;100.00
53262;BME280;39658;51.090;-1.786;2023-03-05T08:24:15;101523.06;;;1.24;100.00
53262;BME280;39658;51.090;-1.786;2023-03-05T08:26:42;101528.22;;;1.28;100.00
53262;BME280;39658;51.090;-1.786;2023-03-05T08:29:09;101523.84;;;1.30;100.00
53262;BME280;39658;51.090;-1.786;2023-03-05T08:31:37;101520.31;;;1.35;100.00
53262;BME280;39658;51.090;-1.786;2023-03-05T08:34:04;101516.00;;;1.34;100.00
53262;BME280;39658;51.090;-1.786;2023-03-05T08:36:31;101514.28;;;1.33;100.00
53262;BME280;39658;51.090;-1.786;2023-03-05T08:38:58;101519.41;;;1.38;100.00
53262;BME280;39658;51.090;-1.786;2023-03-05T08:41:27;101518.50;;;1.40;100.00
53262;BME280;39658;51.090;-1.786;2023-03-05T08:43:54;101521.00;;;1.48;100.00
53262;BME280;39658;51.090;-1.786;2023-03-05T08:46:20;101521.88;;;1.46;100.00
53262;BME280;39658;51.090;-1.786;2023-03-05T08:48:47;101514.13;;;1.44;100.00
53262;BME280;39658;51.090;-1.786;2023-03-05T08:51:16;101511.41;;;1.50;100.00
53262;BME280;39658;51.090;-1.786;2023-03-05T08:53:44;101506.25;;;1.47;100.00
53262;BME280;39658;51.090;-1.786;2023-03-05T08:56:12;101510.63;;;1.47;100.00
53262;BME280;39658;51.090;-1.786;2023-03-05T08:58:40;101505.38;;;1.50;100.00
53262;BME280;39658;51.090;-1.786;2023-03-05T09:01:07;101513.13;;;1.53;100.00
53262;BME280;39658;51.090;-1.786;2023-03-05T09:03:34;101511.41;;;1.50;100.00
53262;BME280;39658;51.090;-1.786;2023-03-05T09:06:02;101500.19;;;1.50;100.00
53262;BME280;39658;51.090;-1.786;2023-03-05T09:08:29;101501.00;;;1.52;100.00
53262;BME280;39658;51.090;-1.786;2023-03-05T09:10:56;101500.16;;;1.51;100.00
53262;BME280;39658;51.090;-1.786;2023-03-05T09:13:23;101501.81;;;1.54;100.00
53262;BME280;39658;51.090;-1.786;2023-03-05T09:15:55;101493.19;;;1.53;100.00
53262;BME280;39658;51.090;-1.786;2023-03-05T09:18:22;101492.25;;;1.57;100.00
53262;BME280;39658;51.090;-1.786;2023-03-05T09:20:49;101488.69;;;1.61;100.00
53262;BME280;39658;51.090;-1.786;2023-03-05T09:23:15;101486.06;;;1.63;100.00
53262;BME280;39658;51.090;-1.786;2023-03-05T09:25:42;101483.47;;;1.63;100.00
53262;BME280;39658;51.090;-1.786;2023-03-05T09:28:09;101478.31;;;1.61;100.00
53262;BME280;39658;51.090;-1.786;2023-03-05T09:30:36;101474.91;;;1.58;100.00
53262;BME280;39658;51.090;-1.786;2023-03-05T09:33:04;101472.31;;;1.58;100.00
53262;BME280;39658;51.090;-1.786;2023-03-05T09:35:34;101467.00;;;1.64;100.00
53262;BME280;39658;51.090;-1.786;2023-03-05T09:38:01;101463.47;;;1.70;100.00
53262;BME280;39658;51.090;-1.786;2023-03-05T09:40:42;101463.44;;;1.71;100.00
53262;BME280;39658;51.090;-1.786;2023-03-05T09:43:18;101465.06;;;1.75;100.00
53262;BME280;39658;51.090;-1.786;2023-03-05T09:46:01;101458.25;;;1.70;100.00
53262;BME280;39658;51.090;-1.786;2023-03-05T09:48:43;101459.97;;;1.69;100.00
53262;BME280;39658;51.090;-1.786;2023-03-05T09:51:17;101453.88;;;1.72;100.00
53262;BME280;39658;51.090;-1.786;2023-03-05T09:53:49;101448.69;;;1.72;100.00
53262;BME280;39658;51.090;-1.786;2023-03-05T09:56:21;101449.53;;;1.72;100.00
53262;BME280;39658;51.090;-1.786;2023-03-05T09:58:50;101447.66;;;1.81;100.00
53262;BME280;39658;51.090;-1.786;2023-03-05T10:01:19;101449.38;;;1.82;100.00
53262;BME280;39658;51.090;-1.786;2023-03-05T10:03:53;101438.84;;;1.88;100.00
53262;BME280;39658;51.090;-1.786;2023-03-05T10:06:23;101438.66;;;1.98;100.00
53262;BME280;39658;51.090;-1.786;2023-03-05T10:08:54;101419.44;;;2.07;100.00
53262;BME280;39658;51.090;-1.786;2023-03-05T10:11:41;101416.16;;;2.41;100.00
53262;BME280;39658;51.090;-1.786;2023-03-05T10:14:12;101410.91;;;2.83;100.00
53262;BME280;39658;51.090;-1.786;2023-03-05T10:19:40;101390.31;;;3.45;100.00
53262;BME280;39658;51.090;-1.786;2023-03-05T10:22:17;101377.97;;;4.16;100.00
53262;BME280;39658;51.090;-1.786;2023-03-05T10:24:55;101363.19;;;5.01;100.00
53262;BME280;39658;51.090;-1.786;2023-03-05T10:27:33;101364.16;;;5.50;100.00
53262;BME280;39658;51.090;-1.786;2023-03-05T10:32:57;101350.22;;;7.33;100.00
53262;BME280;39658;51.090;-1.786;2023-03-05T10:35:48;101353.28;;;7.84;100.00
53262;BME280;39658;51.090;-1.786;2023-03-05T10:38:32;101339.25;;;7.64;100.00
53262;BME280;39658;51.090;-1.786;2023-03-05T10:41:09;101334.72;;;8.26;100.00
53262;BME280;39658;51.090;-1.786;2023-03-05T10:43:46;101330.00;;;8.71;100.00
53262;BME280;39658;51.090;-1.786;2023-03-05T10:46:20;101335.47;;;8.67;100.00
53262;BME280;39658;51.090;-1.786;2023-03-05T10:48:48;101329.09;;;8.90;91.27
53262;BME280;39658;51.090;-1.786;2023-03-05T10:51:20;101323.94;;;9.41;94.07
53262;BME280;39658;51.090;-1.786;2023-03-05T10:53:54;101319.22;;;9.12;94.23
53262;BME280;39658;51.090;-1.786;2023-03-05T10:56:23;101318.81;;;8.85;98.41
53262;BME280;39658;51.090;-1.786;2023-03-05T10:58:50;101308.38;;;8.84;88.76
53262;BME280;39658;51.090;-1.786;2023-03-05T11:01:22;101310.81;;;9.74;96.79
53262;BME280;39658;51.090;-1.786;2023-03-05T11:03:52;101302.00;;;10.71;89.63
53262;BME280;39658;51.090;-1.786;2023-03-05T11:06:28;101294.88;;;10.87;75.98
53262;BME280;39658;51.090;-1.786;2023-03-05T11:08:55;101295.81;;;11.17;76.31
53262;BME280;39658;51.090;-1.786;2023-03-05T11:11:34;101288.88;;;9.05;74.77
53262;BME280;39658;51.090;-1.786;2023-03-05T11:14:01;101292.38;;;9.57;80.07
53262;BME280;39658;51.090;-1.786;2023-03-05T11:16:30;101290.78;;;9.37;82.21
53262;BME280;39658;51.090;-1.786;2023-03-05T11:19:18;101276.66;;;9.88;84.38
53262;BME280;39658;51.090;-1.786;2023-03-05T11:22:04;101285.78;;;10.15;86.67
53262;BME280;39658;51.090;-1.786;2023-03-05T11:24:32;101282.47;;;9.11;89.35
53262;BME280;39658;51.090;-1.786;2023-03-05T11:26:59;101269.34;;;9.44;93.61
53262;BME280;39658;51.090;-1.786;2023-03-05T11:29:27;101265.56;;;9.99;86.72
53262;BME280;39658;51.090;-1.786;2023-03-05T11:31:55;101256.00;;;10.60;83.86
53262;BME280;39658;51.090;-1.786;2023-03-05T11:34:40;101262.22;;;10.28;86.21
53262;BME280;39658;51.090;-1.786;2023-03-05T11:37:20;101255.94;;;10.46;84.23
53262;BME280;39658;51.090;-1.786;2023-03-05T11:39:48;101252.88;;;10.22;79.58
53262;BME280;39658;51.090;-1.786;2023-03-05T11:42:16;101251.47;;;9.51;85.11
53262;BME280;39658;51.090;-1.786;2023-03-05T11:44:51;101251.75;;;9.11;90.22
53262;BME280;39658;51.090;-1.786;2023-03-05T11:47:25;101240.38;;;9.62;91.84
53262;BME280;39658;51.090;-1.786;2023-03-05T11:49:59;101235.88;;;9.96;92.09
53262;BME280;39658;51.090;-1.786;2023-03-05T11:52:45;101227.56;;;9.05;82.85
53262;BME280;39658;51.090;-1.786;2023-03-05T11:55:14;101230.44;;;8.83;91.31
53262;BME280;39658;51.090;-1.786;2023-03-05T11:57:46;101226.63;;;8.88;93.03
53262;BME280;39658;51.090;-1.786;2023-03-05T12:00:17;101220.44;;;8.89;97.04
53262;BME280;39658;51.090;-1.786;2023-03-05T12:02:46;101218.06;;;8.85;99.10
53262;BME280;39658;51.090;-1.786;2023-03-05T12:05:16;101213.13;;;9.12;88.90
53262;BME280;39658;51.090;-1.786;2023-03-05T12:07:47;101199.03;;;11.46;80.73
53262;BME280;39658;51.090;-1.786;2023-03-05T12:10:17;101204.97;;;11.35;78.66
53262;BME280;39658;51.090;-1.786;2023-03-05T12:12:49;101196.19;;;11.49;81.50
53262;BME280;39658;51.090;-1.786;2023-03-05T12:15:30;101200.50;;;10.48;82.97
53262;BME280;39658;51.090;-1.786;2023-03-05T12:18:06;101205.47;;;9.90;85.04
53262;BME280;39658;51.090;-1.786;2023-03-05T12:20:44;101192.09;;;10.86;86.41
53262;BME280;39658;51.090;-1.786;2023-03-05T12:23:16;101189.44;;;9.29;81.23
53262;BME280;39658;51.090;-1.786;2023-03-05T12:25:46;101186.41;;;9.37;91.44
53262;BME280;39658;51.090;-1.786;2023-03-05T12:28:14;101184.03;;;8.82;92.16
53262;BME280;39658;51.090;-1.786;2023-03-05T12:30:58;101166.47;;;8.65;94.84
53262;BME280;39658;51.090;-1.786;2023-03-05T12:33:31;101170.66;;;8.69;97.08
53262;BME280;39658;51.090;-1.786;2023-03-05T12:36:36;101164.22;;;8.39;99.58
53262;BME280;39658;51.090;-1.786;2023-03-05T12:42:46;101154.94;;;8.50;100.00
53262;BME280;39658;51.090;-1.786;2023-03-05T12:45:25;101147.31;;;8.08;100.00
53262;BME280;39658;51.090;-1.786;2023-03-05T12:50:57;101138.16;;;7.24;100.00
53262;BME280;39658;51.090;-1.786;2023-03-05T12:53:24;101136.84;;;7.34;100.00
53262;BME280;39658;51.090;-1.786;2023-03-05T12:56:01;101130.81;;;6.92;100.00
53262;BME280;39658;51.090;-1.786;2023-03-05T12:58:38;101125.19;;;7.01;100.00
53262;BME280;39658;51.090;-1.786;2023-03-05T13:01:15;101116.13;;;7.09;100.00
53262;BME280;39658;51.090;-1.786;2023-03-05T13:03:47;101116.19;;;7.26;100.00